Time;durP1;ratioP1;P1;durP2;ratioP2;P2;SDS_P1;SDS_P2;PMS_P1;PMS_P2;Temp;Humidity;BMP_temperature;BMP_pressure;BME280_temperature;BME280_humidity;BME280_pressure;Samples;Min_cycle;Max_cycle;Signal;HPM_P1;HPM_P2
2023/10/09 00:02:14;;;;;;;0.50;0.00;;;;;;;5.45;100.00;99850.33;105075;1259;73169;-49
2023/10/09 00:04:42;;;;;;;0.90;0.00;;;;;;;5.44;100.00;99857.14;105792;1259;60502;-51
2023/10/09 00:07:11;;;;;;;0.10;0.00;;;;;;;5.43;100.00;99853.77;108927;1258;59272;-51
2023/10/09 00:09:57;;;;;;;0.20;0.00;;;;;;;5.43;100.00;99851.47;105738;1254;73876;-48
2023/10/09 00:12:28;;;;;;;0.00;0.00;;;;;;;5.43;100.00;99857.52;104896;1257;68110;-48
2023/10/09 00:14:55;;;;;;;0.30;0.00;;;;;;;5.43;100.00;99854.32;105196;1259;71440;-48
2023/10/09 00:17:23;;;;;;;0.40;0.00;;;;;;;5.42;100.00;99855.59;105755;1254;60555;-49
2023/10/09 00:19:52;;;;;;;0.30;0.10;;;;;;;5.41;100.00;99856.48;104818;1259;60594;-51
2023/10/09 00:22:26;;;;;;;0.40;0.20;;;;;;;5.43;100.00;99868.91;109036;1254;72755;-52
2023/10/09 00:25:10;;;;;;;2.30;0.10;;;;;;;5.41;100.00;99871.63;108089;1257;68000;-48
2023/10/09 00:27:51;;;;;;;0.40;0.10;;;;;;;5.35;100.00;99873.91;104895;1259;71478;-48
2023/10/09 00:30:21;;;;;;;0.40;0.10;;;;;;;5.28;100.00;99877.98;109181;1253;59697;-49
2023/10/09 00:33:07;;;;;;;0.30;0.10;;;;;;;5.26;100.00;99878.77;109038;1252;58842;-48
2023/10/09 00:38:34;;;;;;;1.80;0.10;;;;;;;5.23;100.00;99878.48;108973;1253;66651;-50
2023/10/09 00:43:37;;;;;;;0.30;0.10;;;;;;;5.24;100.00;99883.06;109106;1252;58435;-50
2023/10/09 00:48:49;;;;;;;0.20;0.00;;;;;;;5.26;100.00;99882.50;109109;1253;73895;-51
2023/10/09 00:51:21;;;;;;;0.20;0.10;;;;;;;5.26;100.00;99884.62;108842;1253;66791;-50
2023/10/09 00:53:52;;;;;;;0.90;0.20;;;;;;;5.26;100.00;99885.88;109021;1254;71911;-49
2023/10/09 01:01:36;;;;;;;0.30;0.10;;;;;;;5.27;100.00;99891.68;108985;1254;72768;-49
2023/10/09 01:04:10;;;;;;;3.30;0.00;;;;;;;5.28;100.00;99893.65;109066;1254;66729;-50
2023/10/09 01:06:43;;;;;;;2.20;0.10;;;;;;;5.28;100.00;99897.01;109093;1254;71701;-49
2023/10/09 01:09:13;;;;;;;0.10;0.00;;;;;;;5.29;100.00;99900.02;105811;1260;60537;-49
2023/10/09 01:12:28;;;;;;;0.30;0.10;;;;;;;5.31;100.00;99905.31;106748;1254;59795;-50
2023/10/09 01:14:31;;;;;;;1.60;0.00;;;;;;;5.35;100.00;99905.58;105110;1260;74398;-48
2023/10/09 01:17:09;;;;;;;0.30;0.20;;;;;;;5.38;100.00;99906.55;108942;1253;65892;-49
2023/10/09 01:19:37;;;;;;;0.10;0.00;;;;;;;5.40;100.00;99912.59;106372;1258;73163;-48
2023/10/09 01:22:12;;;;;;;0.10;0.00;;;;;;;5.41;100.00;99912.55;104561;1260;61351;-49
2023/10/09 01:24:40;;;;;;;0.50;0.10;;;;;;;5.41;100.00;99923.23;104733;1257;60908;-48
2023/10/09 01:27:14;;;;;;;0.30;0.00;;;;;;;5.40;100.00;99921.84;104857;1254;73831;-50
2023/10/09 01:29:43;;;;;;;1.70;0.10;;;;;;;5.37;100.00;99922.95;106667;1254;68127;-48
2023/10/09 01:32:19;;;;;;;0.30;0.10;;;;;;;5.34;100.00;99926.08;107805;1255;71430;-49
2023/10/09 01:34:50;;;;;;;2.60;0.00;;;;;;;5.29;100.00;99939.86;104675;1260;60649;-49
2023/10/09 01:37:22;;;;;;;0.40;0.00;;;;;;;5.23;100.00;99945.91;106170;1254;62190;-50
2023/10/09 01:39:52;;;;;;;1.50;0.00;;;;;;;5.12;100.00;99956.66;104899;1257;73900;-48
2023/10/09 01:42:33;;;;;;;2.20;0.10;;;;;;;5.04;100.00;99959.16;104801;1258;67492;-47
2023/10/09 01:45:10;;;;;;;0.40;0.00;;;;;;;4.97;100.00;99973.73;106971;1254;71481;-49
2023/10/09 01:47:38;;;;;;;0.60;0.00;;;;;;;4.86;100.00;99966.48;104833;1260;60570;-48
2023/10/09 01:50:11;;;;;;;1.50;0.00;;;;;;;4.76;100.00;99978.09;105031;1253;60550;-49
2023/10/09 01:52:38;;;;;;;0.60;0.00;;;;;;;4.68;100.00;99965.11;106306;1254;73912;-47
2023/10/09 01:55:09;;;;;;;0.00;0.00;;;;;;;4.60;100.00;99969.17;104805;1254;65629;-48
2023/10/09 01:57:39;;;;;;;0.20;0.00;;;;;;;4.52;100.00;99977.71;104886;1254;71635;-48
2023/10/09 02:00:07;;;;;;;0.00;0.00;;;;;;;4.46;100.00;99982.62;105281;1259;60426;-50
2023/10/09 02:05:42;;;;;;;0.70;0.00;;;;;;;4.36;100.00;99985.47;102490;1287;600731;-49
2023/10/09 02:08:11;;;;;;;0.20;0.00;;;;;;;4.28;100.00;99985.98;104802;1271;59506;-49
2023/10/09 02:10:39;;;;;;;0.10;0.00;;;;;;;4.23;100.00;99985.55;104163;1266;59523;-49
2023/10/09 02:13:07;;;;;;;0.90;0.10;;;;;;;4.18;100.00;99985.45;104261;1272;72834;-48
2023/10/09 02:21:12;;;;;;;1.60;0.00;;;;;;;4.12;100.00;99993.39;104139;1269;59682;-48
2023/10/09 02:26:32;;;;;;;3.00;0.00;;;;;;;4.13;100.00;99998.01;104213;1268;72318;-49
2023/10/09 02:29:00;;;;;;;0.00;0.00;;;;;;;4.16;100.00;99994.58;104099;1263;66483;-51
2023/10/09 02:31:35;;;;;;;0.20;0.00;;;;;;;4.17;100.00;99992.23;104131;1269;72751;-49
2023/10/09 02:34:05;;;;;;;2.00;0.00;;;;;;;4.22;100.00;99994.64;104026;1264;59843;-49
2023/10/09 02:36:38;;;;;;;3.20;0.00;;;;;;;4.26;100.00;99997.75;104702;1264;59754;-50
2023/10/09 02:39:07;;;;;;;0.20;0.00;;;;;;;4.29;100.00;100006.23;103995;1264;72021;-49
2023/10/09 02:41:35;;;;;;;0.50;0.10;;;;;;;4.33;100.00;100010.06;104647;1262;66854;-47
2023/10/09 02:44:10;;;;;;;2.00;0.10;;;;;;;4.37;100.00;100002.16;104111;1270;72332;-49
2023/10/09 02:46:40;;;;;;;0.20;0.00;;;;;;;4.40;100.00;100009.39;104086;1263;60170;-49
2023/10/09 02:49:09;;;;;;;1.70;0.10;;;;;;;4.44;100.00;100013.23;104070;1264;60539;-49
2023/10/09 02:51:47;;;;;;;0.20;0.10;;;;;;;4.46;100.00;100017.26;107366;1263;73004;-52
2023/10/09 02:54:18;;;;;;;2.00;0.10;;;;;;;4.47;100.00;100024.36;104465;1264;66777;-51
2023/10/09 02:56:48;;;;;;;0.30;0.10;;;;;;;4.44;100.00;100033.64;104159;1267;71468;-49
2023/10/09 02:59:15;;;;;;;0.10;0.00;;;;;;;4.41;100.00;100036.73;108317;1264;59661;-50
2023/10/09 03:01:42;;;;;;;0.50;0.10;;;;;;;4.37;100.00;100032.02;106583;1267;61009;-49
2023/10/09 03:04:14;;;;;;;0.50;0.00;;;;;;;4.35;100.00;100022.64;104199;1264;72588;-49
2023/10/09 03:06:53;;;;;;;1.60;0.10;;;;;;;4.34;100.00;100027.09;105046;1264;66984;-49
2023/10/09 03:09:31;;;;;;;0.90;0.10;;;;;;;4.33;100.00;100029.27;106275;1267;72683;-49
2023/10/09 03:12:02;;;;;;;2.40;0.10;;;;;;;4.32;100.00;100033.89;108245;1262;59768;-50
2023/10/09 03:14:31;;;;;;;0.40;0.10;;;;;;;4.30;100.00;100038.19;105204;1266;59785;-50
2023/10/09 03:16:59;;;;;;;0.10;0.00;;;;;;;4.28;100.00;100037.52;104316;1260;73022;-50
2023/10/09 03:19:39;;;;;;;1.30;0.00;;;;;;;4.27;100.00;100038.06;104163;1266;68849;-49
2023/10/09 03:22:10;;;;;;;0.10;0.00;;;;;;;4.26;100.00;100041.27;104281;1261;72487;-49
2023/10/09 03:24:43;;;;;;;0.00;0.00;;;;;;;4.25;100.00;100044.86;106901;1260;59753;-51
2023/10/09 03:27:14;;;;;;;0.10;0.00;;;;;;;4.24;100.00;100039.38;104356;1266;59649;-48
2023/10/09 03:29:41;;;;;;;0.00;0.00;;;;;;;4.22;100.00;100046.69;104328;1261;72501;-48
2023/10/09 03:32:09;;;;;;;0.00;0.00;;;;;;;4.22;100.00;100049.89;104429;1266;68028;-49
2023/10/09 03:34:36;;;;;;;0.00;0.00;;;;;;;4.22;100.00;100055.04;104396;1266;72793;-49
2023/10/09 03:37:06;;;;;;;0.90;0.00;;;;;;;4.21;100.00;100056.82;104473;1262;59768;-49
2023/10/09 03:39:34;;;;;;;0.20;0.00;;;;;;;4.18;100.00;100051.70;108535;1260;60067;-49
2023/10/09 03:42:05;;;;;;;0.40;0.10;;;;;;;4.17;100.00;100051.55;108527;1260;71794;-49
2023/10/09 03:44:36;;;;;;;0.40;0.10;;;;;;;4.16;100.00;100052.65;108434;1260;67858;-50
2023/10/09 03:47:04;;;;;;;0.10;0.00;;;;;;;4.15;100.00;100053.90;108737;1257;72768;-48
2023/10/09 03:49:32;;;;;;;2.00;0.10;;;;;;;4.13;100.00;100050.04;108852;1257;59607;-49
2023/10/09 03:51:59;;;;;;;0.10;0.00;;;;;;;4.11;100.00;100053.44;108684;1256;60004;-50
2023/10/09 03:54:27;;;;;;;0.20;0.00;;;;;;;4.11;100.00;100057.17;108697;1257;73490;-49
2023/10/09 03:56:58;;;;;;;0.60;0.00;;;;;;;4.09;100.00;100059.15;108789;1257;66632;-49
2023/10/09 03:59:30;;;;;;;1.80;0.10;;;;;;;4.07;100.00;100064.70;108478;1258;71528;-50
2023/10/09 04:01:58;;;;;;;0.10;0.00;;;;;;;4.09;100.00;100070.69;104711;1259;59778;-49
2023/10/09 04:04:27;;;;;;;0.20;0.00;;;;;;;4.10;100.00;100066.23;104501;1257;62329;-49
2023/10/09 04:06:55;;;;;;;0.20;0.10;;;;;;;4.12;100.00;100074.92;104630;1258;73251;-50
2023/10/09 04:12:39;;;;;;;0.10;0.00;;;;;;;4.11;100.00;100083.45;108703;1257;72818;-50
2023/10/09 04:20:30;;;;;;;0.10;0.10;;;;;;;4.09;100.00;100086.33;104571;1258;73481;-50
2023/10/09 04:23:35;;;;;;;0.20;0.10;;;;;;;4.06;100.00;100084.80;104298;1256;66765;-49
2023/10/09 04:25:45;;;;;;;0.30;0.10;;;;;;;4.04;100.00;100086.23;104513;1258;74593;-48
2023/10/09 04:28:18;;;;;;;0.10;0.10;;;;;;;4.03;100.00;100088.39;106268;1263;59329;-48
2023/10/09 04:30:53;;;;;;;0.10;0.10;;;;;;;4.01;100.00;100093.56;105953;1262;59647;-49
2023/10/09 04:33:28;;;;;;;1.70;0.20;;;;;;;4.00;100.00;100097.52;108431;1257;71868;-49
2023/10/09 04:36:16;;;;;;;0.30;0.10;;;;;;;3.97;100.00;100100.57;104518;1263;65968;-48
2023/10/09 04:38:55;;;;;;;0.30;0.10;;;;;;;3.96;100.00;100107.15;104419;1258;72804;-50
2023/10/09 04:41:33;;;;;;;3.60;0.10;;;;;;;3.96;100.00;100113.73;108719;1257;61809;-50
2023/10/09 04:44:19;;;;;;;0.50;0.10;;;;;;;3.95;100.00;100118.16;108756;1258;58848;-50
2023/10/09 05:02:57;;;;;;;;;;;;;;;4.17;100.00;100139.66;104937;1263;68025;-48
2023/10/09 05:08:19;;;;;;;1.00;0.20;;;;;;;4.21;100.00;100153.11;104509;1263;59782;-48
2023/10/09 05:13:57;;;;;;;0.90;0.10;;;;;;;4.27;100.00;100158.85;104864;1260;71807;-48
2023/10/09 05:16:19;;;;;;;0.40;0.10;;;;;;;4.34;100.00;100165.50;104702;1263;66813;-50
2023/10/09 05:18:59;;;;;;;0.30;0.10;;;;;;;4.40;100.00;100164.15;104727;1263;72704;-50
2023/10/09 05:24:16;;;;;;;0.20;0.10;;;;;;;4.60;100.00;100161.15;104785;1263;60374;-47
2023/10/09 05:37:32;;;;;;;0.70;0.10;;;;;;;5.09;100.00;100181.41;104593;1266;59908;-48
2023/10/09 05:48:04;;;;;;;0.20;0.10;;;;;;;5.41;100.00;100190.38;107037;1259;61529;-50
2023/10/09 05:58:53;;;;;;;0.10;0.00;;;;;;;5.47;100.00;100194.85;104647;1259;73238;-50
2023/10/09 06:04:17;;;;;;;0.30;0.10;;;;;;;5.47;100.00;100196.46;104891;1260;59758;-48
2023/10/09 06:06:45;;;;;;;0.70;0.10;;;;;;;5.51;100.00;100206.55;104975;1260;73302;-49
2023/10/09 06:14:49;;;;;;;0.50;0.10;;;;;;;5.64;100.00;100218.36;106302;1258;59640;-49
2023/10/09 06:19:43;;;;;;;0.90;0.00;;;;;;;5.72;100.00;100222.63;104879;1262;73127;-48
2023/10/09 06:24:59;;;;;;;0.40;0.00;;;;;;;5.81;100.00;100227.44;104960;1260;72792;-47
2023/10/09 06:32:57;;;;;;;1.30;0.00;;;;;;;5.91;100.00;100233.31;105349;1257;73092;-47
2023/10/09 06:35:32;;;;;;;0.30;0.10;;;;;;;5.93;100.00;100240.59;106034;1260;67903;-48
2023/10/09 06:43:09;;;;;;;0.60;0.10;;;;;;;5.99;100.00;100239.90;104771;1259;60443;-49
2023/10/09 06:45:45;;;;;;;1.50;0.10;;;;;;;6.00;100.00;100239.00;104807;1260;73768;-48
2023/10/09 06:48:59;;;;;;;0.30;0.20;;;;;;;6.01;100.00;100238.26;108996;1254;66780;-47
2023/10/09 06:51:15;;;;;;;0.30;0.10;;;;;;;6.02;100.00;100242.69;108918;1258;72813;-48
2023/10/09 06:57:12;;;;;;;0.70;0.10;;;;;;;6.08;100.00;100240.60;104723;1259;60428;-47
2023/10/09 06:59:21;;;;;;;0.40;0.10;;;;;;;6.09;100.00;100240.05;104826;1267;74322;-48
2023/10/09 07:07:07;;;;;;;0.50;0.10;;;;;;;6.20;100.00;100244.96;108991;1258;59323;-49
2023/10/09 07:10:28;;;;;;;0.20;0.00;;;;;;;6.23;100.00;100246.67;108985;1254;60108;-49
2023/10/09 07:12:42;;;;;;;0.30;0.10;;;;;;;6.27;100.00;100255.50;109013;1254;76019;-49
2023/10/09 07:16:23;;;;;;;0.20;0.10;;;;;;;6.34;100.00;100266.75;108959;1254;66358;-49
2023/10/09 07:18:18;;;;;;;1.60;0.10;;;;;;;6.42;100.00;100273.33;108934;1257;71442;-48
2023/10/09 07:20:58;;;;;;;0.20;0.00;;;;;;;6.47;100.00;100269.27;108967;1256;60012;-50
2023/10/09 07:23:32;;;;;;;0.40;0.10;;;;;;;6.51;100.00;100281.70;106680;1260;60447;-46
2023/10/09 07:26:47;;;;;;;0.20;0.10;;;;;;;6.52;100.00;100275.77;104859;1267;72218;-51
2023/10/09 07:29:01;;;;;;;1.00;0.10;;;;;;;6.53;100.00;100278.08;104786;1264;66841;-49
2023/10/09 07:31:29;;;;;;;0.10;0.00;;;;;;;6.57;100.00;100284.39;105653;1260;71117;-49
2023/10/09 07:33:57;;;;;;;0.40;0.10;;;;;;;6.61;100.00;100289.66;104722;1259;60807;-49
2023/10/09 07:36:37;;;;;;;0.80;0.10;;;;;;;6.64;100.00;100283.52;104608;1262;60529;-51
2023/10/09 07:39:16;;;;;;;2.20;0.10;;;;;;;6.68;100.00;100280.19;105206;1257;72634;-50
2023/10/09 07:41:55;;;;;;;0.50;0.00;;;;;;;6.74;100.00;100280.92;105337;1262;65544;-49
2023/10/09 07:44:38;;;;;;;0.30;0.10;;;;;;;6.81;100.00;100278.28;104853;1270;72652;-49
2023/10/09 07:49:53;;;;;;;0.50;0.10;;;;;;;6.95;100.00;100282.04;107875;1259;60478;-48
2023/10/09 07:52:21;;;;;;;0.20;0.10;;;;;;;7.00;100.00;100281.71;105939;1255;72048;-48
2023/10/09 07:55:02;;;;;;;0.40;0.10;;;;;;;7.06;100.00;100286.20;104912;1260;66546;-48
2023/10/09 07:57:38;;;;;;;0.20;0.00;;;;;;;7.12;100.00;100281.77;105005;1255;73182;-50
2023/10/09 08:00:36;;;;;;;0.50;0.10;;;;;;;7.14;100.00;100287.06;104673;1254;60489;-47
2023/10/09 08:03:00;;;;;;;0.20;0.10;;;;;;;7.19;100.00;100290.88;105398;1263;59224;-49
2023/10/09 08:05:44;;;;;;;0.10;0.00;;;;;;;7.21;100.00;100290.46;104705;1260;72678;-47
2023/10/09 08:08:39;;;;;;;0.10;0.10;;;;;;;7.26;100.00;100288.53;106297;1264;66775;-49
2023/10/09 08:14:00;;;;;;;0.40;0.00;;;;;;;7.25;100.00;100281.61;104829;1255;60551;-48
2023/10/09 08:16:37;;;;;;;0.30;0.10;;;;;;;7.24;100.00;100289.64;105872;1261;60620;-47
2023/10/09 08:19:32;;;;;;;0.10;0.00;;;;;;;7.27;100.00;100281.21;104938;1258;73972;-51
2023/10/09 08:22:37;;;;;;;0.10;0.00;;;;;;;7.27;100.00;100275.67;105192;1259;68542;-49
2023/10/09 08:24:57;;;;;;;0.50;0.00;;;;;;;7.28;100.00;100278.86;104941;1260;71833;-49
2023/10/09 08:27:47;;;;;;;0.30;0.10;;;;;;;7.35;100.00;100286.34;104920;1254;61421;-48
2023/10/09 08:33:01;;;;;;;1.70;0.10;;;;;;;7.44;100.00;100283.60;105108;1260;72679;-50
2023/10/09 08:35:33;;;;;;;0.30;0.00;;;;;;;7.46;100.00;100291.23;104848;1260;66833;-47
2023/10/09 08:38:07;;;;;;;0.40;0.10;;;;;;;7.47;100.00;100283.88;104793;1260;72731;-48
2023/10/09 08:40:38;;;;;;;0.60;0.10;;;;;;;7.46;100.00;100286.58;104870;1255;61298;-48
2023/10/09 08:43:20;;;;;;;0.40;0.20;;;;;;;7.48;100.00;100283.50;104866;1254;60623;-51
2023/10/09 08:45:48;;;;;;;0.20;0.10;;;;;;;7.53;100.00;100284.96;104708;1263;72663;-49
2023/10/09 08:48:16;;;;;;;0.60;0.10;;;;;;;7.60;100.00;100287.08;104682;1254;67790;-49
2023/10/09 08:50:48;;;;;;;0.40;0.10;;;;;;;7.64;100.00;100299.49;105233;1258;73068;-47
2023/10/09 08:53:16;;;;;;;0.40;0.10;;;;;;;7.67;100.00;100283.65;105350;1255;60440;-47
2023/10/09 08:55:43;;;;;;;0.30;0.10;;;;;;;7.73;100.00;100285.85;104876;1261;60632;-50
2023/10/09 08:58:20;;;;;;;1.90;0.20;;;;;;;7.80;100.00;100293.67;105303;1255;72647;-52
2023/10/09 09:00:48;;;;;;;0.60;0.10;;;;;;;7.88;100.00;100292.52;105232;1255;67039;-47
2023/10/09 09:03:17;;;;;;;1.10;0.10;;;;;;;7.96;100.00;100295.86;104845;1257;72776;-49
2023/10/09 09:05:51;;;;;;;0.50;0.10;;;;;;;8.05;100.00;100300.63;104859;1262;61460;-51
2023/10/09 09:08:28;;;;;;;0.60;0.00;;;;;;;8.13;100.00;100298.78;105880;1257;61054;-48
2023/10/09 09:11:17;;;;;;;1.20;0.10;;;;;;;8.20;100.00;100304.11;104756;1254;72685;-48
2023/10/09 09:13:48;;;;;;;0.10;0.10;;;;;;;8.26;100.00;100301.60;105364;1254;66803;-50
2023/10/09 09:16:20;;;;;;;0.30;0.10;;;;;;;8.32;100.00;100305.91;105664;1254;73211;-49
2023/10/09 09:21:49;;;;;;;0.40;0.10;;;;;;;8.49;100.00;100305.39;104968;1254;60445;-53
2023/10/09 09:27:12;;;;;;;0.50;0.10;;;;;;;8.57;100.00;100309.81;106901;1257;70024;-49
2023/10/09 09:29:41;;;;;;;0.40;0.10;;;;;;;8.58;100.00;100315.32;106463;1257;72704;-50
2023/10/09 09:32:18;;;;;;;0.10;0.10;;;;;;;8.60;100.00;100312.39;105263;1252;60569;-50
2023/10/09 09:34:55;;;;;;;1.00;0.30;;;;;;;8.63;100.00;100309.05;107235;1253;60559;-49
2023/10/09 09:37:28;;;;;;;2.00;0.50;;;;;;;8.68;100.00;100316.23;104830;1258;74480;-48
2023/10/09 09:40:00;;;;;;;0.60;0.10;;;;;;;8.69;100.00;100317.09;109071;1254;67421;-49
2023/10/09 09:42:31;;;;;;;0.20;0.10;;;;;;;8.69;100.00;100311.02;109003;1254;73169;-51
2023/10/09 09:45:00;;;;;;;0.30;0.10;;;;;;;8.70;100.00;100293.08;109124;1256;58248;-49
2023/10/09 09:47:27;;;;;;;0.20;0.10;;;;;;;8.77;100.00;100292.52;108955;1253;60532;-50
2023/10/09 09:50:11;;;;;;;0.80;0.30;;;;;;;8.82;100.00;100297.58;108962;1259;74315;-54
2023/10/09 09:52:38;;;;;;;0.10;0.10;;;;;;;8.80;100.00;100295.10;108990;1254;65563;-52
2023/10/09 09:55:17;;;;;;;0.20;0.10;;;;;;;8.78;100.00;100295.36;109145;1254;72794;-50
2023/10/09 09:57:45;;;;;;;0.30;0.00;;;;;;;8.71;100.00;100294.50;109032;1253;58781;-50
2023/10/09 10:00:28;;;;;;;0.20;0.10;;;;;;;8.67;100.00;100291.61;109187;1254;59996;-49
2023/10/09 10:02:58;;;;;;;0.60;0.20;;;;;;;8.70;100.00;100294.53;109047;1254;74348;-50
2023/10/09 10:05:29;;;;;;;0.30;0.10;;;;;;;8.73;100.00;100293.02;109229;1254;68467;-51
2023/10/09 10:08:00;;;;;;;0.40;0.20;;;;;;;8.78;100.00;100285.35;108979;1254;71481;-49
2023/10/09 10:10:38;;;;;;;0.10;0.00;;;;;;;8.82;100.00;100281.64;109071;1253;59478;-51
2023/10/09 10:13:14;;;;;;;0.10;0.00;;;;;;;8.87;100.00;100281.27;109087;1254;60521;-50
2023/10/09 10:15:57;;;;;;;0.30;0.10;;;;;;;8.89;100.00;100276.55;109100;1254;73937;-50
2023/10/09 10:18:31;;;;;;;0.20;0.10;;;;;;;8.94;100.00;100282.30;108899;1253;65669;-48
2023/10/09 10:21:39;;;;;;;0.40;0.00;;;;;;;9.00;100.00;100276.39;108009;1253;72750;-49
2023/10/09 10:24:06;;;;;;;0.50;0.10;;;;;;;9.03;100.00;100272.48;106606;1254;60405;-49
2023/10/09 10:26:36;;;;;;;0.30;0.20;;;;;;;9.07;100.00;100270.39;104898;1254;60473;-47
2023/10/09 10:29:26;;;;;;;0.30;0.10;;;;;;;9.11;100.00;100264.54;104703;1255;74309;-48
2023/10/09 10:32:10;;;;;;;0.10;0.00;;;;;;;9.16;100.00;100267.59;107142;1257;67577;-50
2023/10/09 10:34:55;;;;;;;0.10;0.00;;;;;;;9.20;100.00;100265.83;106599;1253;71811;-49
2023/10/09 10:37:51;;;;;;;0.30;0.10;;;;;;;9.28;100.00;100254.47;106655;1256;60467;-51
2023/10/09 10:46:24;;;;;;;0.60;0.10;;;;;;;9.29;100.00;100248.31;105561;1254;66918;-49
2023/10/09 10:52:18;;;;;;;0.30;0.10;;;;;;;9.37;100.00;100243.18;104470;1263;60501;-51
2023/10/09 10:54:46;;;;;;;0.20;0.10;;;;;;;9.41;100.00;100237.16;104716;1254;60648;-50
2023/10/09 10:57:53;;;;;;;0.30;0.10;;;;;;;9.41;100.00;100240.20;105832;1257;72821;-49
2023/10/09 11:01:11;;;;;;;0.10;0.00;;;;;;;9.43;100.00;100234.40;105610;1258;65663;-49
2023/10/09 11:03:14;;;;;;;0.40;0.10;;;;;;;9.42;100.00;100229.77;104834;1258;71493;-48
2023/10/09 11:05:42;;;;;;;0.30;0.10;;;;;;;9.44;100.00;100226.64;104959;1260;60681;-50
2023/10/09 11:08:10;;;;;;;0.10;0.10;;;;;;;9.48;100.00;100226.52;109018;1252;58922;-50
2023/10/09 11:10:49;;;;;;;0.70;0.10;;;;;;;9.50;100.00;100223.73;109166;1252;73768;-48
2023/10/09 11:13:30;;;;;;;0.90;0.00;;;;;;;9.53;100.00;100226.14;108895;1254;65857;-48
2023/10/09 11:16:28;;;;;;;0.00;0.00;;;;;;;9.54;100.00;100220.36;108931;1254;73744;-48
2023/10/09 11:18:57;;;;;;;0.20;0.10;;;;;;;9.59;100.00;100225.23;109086;1253;60091;-49
2023/10/09 11:21:31;;;;;;;0.10;0.10;;;;;;;9.63;100.00;100217.52;108640;1253;59151;-46
2023/10/09 11:23:58;;;;;;;0.10;0.00;;;;;;;9.69;100.00;100219.99;105399;1254;73847;-48
2023/10/09 11:26:27;;;;;;;0.10;0.00;;;;;;;9.72;100.00;100216.65;104917;1254;68053;-48
2023/10/09 11:32:17;;;;;;;0.10;0.00;;;;;;;9.78;100.00;100221.09;105132;1254;60436;-49
2023/10/09 11:35:09;;;;;;;0.20;0.10;;;;;;;9.82;100.00;100217.34;105583;1257;60557;-49
2023/10/09 11:37:42;;;;;;;0.20;0.10;;;;;;;9.90;100.00;100214.91;105673;1257;73923;-47
2023/10/09 11:40:34;;;;;;;0.20;0.00;;;;;;;9.96;100.00;100214.86;104876;1257;66803;-48
2023/10/09 11:43:03;;;;;;;0.90;0.10;;;;;;;10.00;100.00;100214.33;104893;1254;72742;-48
2023/10/09 11:45:37;;;;;;;0.20;0.10;;;;;;;10.06;100.00;100216.98;106794;1253;60543;-48
2023/10/09 11:48:24;;;;;;;1.20;0.10;;;;;;;10.12;100.00;100221.92;105141;1254;60525;-51
2023/10/09 11:53:48;;;;;;;0.20;0.10;;;;;;;10.23;100.00;100222.59;104983;1257;68009;-49
2023/10/09 11:56:19;;;;;;;;;;;;;;;10.24;100.00;100225.43;106416;1254;72644;-51
2023/10/09 11:58:49;;;;;;;0.10;0.10;;;;;;;10.25;100.00;100227.02;105137;1253;60995;-50
2023/10/09 12:01:19;;;;;;;0.20;0.00;;;;;;;10.27;100.00;100235.39;105943;1256;60494;-49
2023/10/09 12:03:51;;;;;;;0.20;0.10;;;;;;;10.26;100.00;100225.36;105255;1257;72641;-48
2023/10/09 12:06:22;;;;;;;0.50;0.00;;;;;;;10.23;100.00;100230.11;105262;1257;66567;-49
2023/10/09 12:08:50;;;;;;;1.60;0.00;;;;;;;10.22;100.00;100230.51;106162;1253;72681;-49
2023/10/09 12:11:38;;;;;;;0.40;0.00;;;;;;;10.25;100.00;100226.83;104821;1254;60433;-50
2023/10/09 12:14:23;;;;;;;0.40;0.10;;;;;;;10.28;100.00;100230.48;104879;1259;60642;-49
2023/10/09 12:16:52;;;;;;;0.50;0.20;;;;;;;10.29;100.00;100225.26;104949;1257;72634;-48
2023/10/09 12:19:21;;;;;;;0.20;0.10;;;;;;;10.31;100.00;100230.02;105804;1253;66436;-49
2023/10/09 12:21:49;;;;;;;0.30;0.10;;;;;;;10.32;100.00;100231.23;106548;1256;73197;-48
2023/10/09 12:24:18;;;;;;;1.50;0.10;;;;;;;10.34;100.00;100224.16;104834;1253;60561;-49
2023/10/09 12:26:47;;;;;;;0.10;0.00;;;;;;;10.37;100.00;100227.79;104956;1254;61254;-50
2023/10/09 12:29:15;;;;;;;0.10;0.00;;;;;;;10.38;100.00;100223.83;104963;1254;72736;-48
2023/10/09 12:31:45;;;;;;;0.10;0.00;;;;;;;10.35;100.00;100216.74;104967;1257;66914;-49
2023/10/09 12:34:16;;;;;;;1.90;0.30;;;;;;;10.31;100.00;100222.63;105360;1254;71674;-51
2023/10/09 12:36:47;;;;;;;0.10;0.10;;;;;;;10.30;100.00;100215.34;104829;1257;60442;-50
2023/10/09 12:39:18;;;;;;;0.10;0.10;;;;;;;10.29;100.00;100204.80;104955;1254;60559;-50
2023/10/09 12:41:45;;;;;;;0.70;0.20;;;;;;;10.29;100.00;100209.49;105737;1255;72658;-49
2023/10/09 12:44:18;;;;;;;1.70;0.10;;;;;;;10.28;100.00;100207.16;104850;1253;68104;-50
2023/10/09 12:46:52;;;;;;;0.50;0.10;;;;;;;10.24;100.00;100196.73;109121;1254;71562;-51
2023/10/09 12:49:24;;;;;;;0.30;0.10;;;;;;;10.21;100.00;100193.98;109088;1254;58840;-49
2023/10/09 12:51:52;;;;;;;0.30;0.10;;;;;;;10.19;100.00;100187.44;109050;1253;59576;-49
2023/10/09 12:54:24;;;;;;;0.40;0.00;;;;;;;10.15;100.00;100191.15;109039;1254;74349;-49
2023/10/09 12:56:51;;;;;;;0.20;0.10;;;;;;;10.11;100.00;100199.20;109120;1253;66816;-50
2023/10/09 12:59:20;;;;;;;0.30;0.10;;;;;;;10.07;100.00;100193.08;109162;1254;71466;-50
2023/10/09 13:01:57;;;;;;;0.30;0.10;;;;;;;10.06;100.00;100194.36;109065;1253;58558;-50
2023/10/09 13:04:31;;;;;;;0.90;0.10;;;;;;;10.07;100.00;100193.63;109109;1252;60201;-48
2023/10/09 13:07:04;;;;;;;;;;;;;;;10.04;100.00;100191.05;109178;1253;72966;-51
2023/10/09 13:09:36;;;;;;;0.20;0.10;;;;;;;10.02;100.00;100191.14;109140;1253;65650;-53
2023/10/09 13:12:03;;;;;;;0.30;0.10;;;;;;;10.01;100.00;100192.09;109202;1252;71472;-48
2023/10/09 13:14:35;;;;;;;0.20;0.10;;;;;;;10.00;100.00;100195.69;109023;1254;60105;-51
2023/10/09 13:17:10;;;;;;;0.60;0.10;;;;;;;9.98;100.00;100196.11;108481;1253;60542;-49
2023/10/09 13:19:37;;;;;;;0.20;0.10;;;;;;;9.98;100.00;100197.20;109199;1253;73952;-50
2023/10/09 13:22:12;;;;;;;0.20;0.10;;;;;;;9.97;100.00;100198.30;109119;1251;65664;-49
2023/10/09 13:24:41;;;;;;;1.70;0.10;;;;;;;9.96;100.00;100196.39;109145;1253;72709;-51
2023/10/09 13:27:09;;;;;;;0.70;0.10;;;;;;;9.92;100.00;100196.38;109020;1253;60680;-50
2023/10/09 13:29:39;;;;;;;0.70;0.10;;;;;;;9.89;100.00;100194.50;107012;1257;60412;-49
2023/10/09 13:32:14;;;;;;;0.60;0.20;;;;;;;9.85;100.00;100186.59;105315;1254;72666;-49
2023/10/09 13:34:44;;;;;;;0.80;0.10;;;;;;;9.83;100.00;100184.69;105416;1253;65651;-52
2023/10/09 13:37:13;;;;;;;0.20;0.10;;;;;;;9.82;100.00;100180.27;106922;1256;73465;-51
2023/10/09 13:39:52;;;;;;;0.50;0.10;;;;;;;9.79;100.00;100179.65;104756;1253;60437;-49
2023/10/09 13:42:24;;;;;;;0.20;0.10;;;;;;;9.77;100.00;100180.81;106459;1253;59154;-52
2023/10/09 13:44:55;;;;;;;0.50;0.10;;;;;;;9.76;100.00;100182.80;105461;1253;72912;-47
2023/10/09 13:47:29;;;;;;;0.10;0.00;;;;;;;9.73;100.00;100180.95;106241;1254;65726;-51
2023/10/09 13:49:57;;;;;;;0.10;0.00;;;;;;;9.70;100.00;100180.90;105462;1254;71137;-49
2023/10/09 13:52:26;;;;;;;1.80;0.10;;;;;;;9.66;100.00;100179.25;108503;1253;58897;-50
2023/10/09 13:54:55;;;;;;;0.40;0.10;;;;;;;9.62;100.00;100182.44;106324;1253;60552;-49
2023/10/09 13:57:30;;;;;;;0.40;0.30;;;;;;;9.60;100.00;100183.96;104938;1254;72871;-50
2023/10/09 14:00:00;;;;;;;2.60;0.20;;;;;;;9.56;100.00;100185.17;105141;1258;65837;-52
2023/10/09 14:02:28;;;;;;;0.40;0.20;;;;;;;9.53;100.00;100183.88;104819;1254;73186;-49
2023/10/09 14:05:00;;;;;;;0.80;0.10;;;;;;;9.47;100.00;100179.41;104870;1254;60514;-51
2023/10/09 14:07:28;;;;;;;1.90;0.30;;;;;;;9.45;100.00;100177.53;105859;1256;60552;-48
2023/10/09 14:09:56;;;;;;;0.60;0.30;;;;;;;9.42;100.00;100180.69;104872;1254;72654;-50
2023/10/09 14:12:24;;;;;;;0.30;0.10;;;;;;;9.41;100.00;100183.61;105539;1254;65674;-51
2023/10/09 14:14:53;;;;;;;0.60;0.30;;;;;;;9.39;100.00;100185.81;104950;1259;72740;-52
2023/10/09 14:17:27;;;;;;;0.30;0.20;;;;;;;9.38;100.00;100186.20;105552;1256;60542;-50